sensor_id;sensor_type;location;lat;lon;timestamp;temperature;humidity
69082;DHT22;56184;51.986;5.760;2022-12-07T00:02:21;4.90;98.60
69082;DHT22;56184;51.986;5.760;2022-12-07T00:05:00;4.80;98.50
69082;DHT22;56184;51.986;5.760;2022-12-07T00:07:28;4.80;98.50
69082;DHT22;56184;51.986;5.760;2022-12-07T00:10:11;4.80;98.50
69082;DHT22;56184;51.986;5.760;2022-12-07T00:12:37;4.70;98.50
69082;DHT22;56184;51.986;5.760;2022-12-07T00:15:07;4.70;98.40
69082;DHT22;56184;51.986;5.760;2022-12-07T00:17:33;4.60;98.50
69082;DHT22;56184;51.986;5.760;2022-12-07T00:22:59;4.50;98.50
69082;DHT22;56184;51.986;5.760;2022-12-07T00:25:34;4.50;98.60
69082;DHT22;56184;51.986;5.760;2022-12-07T00:28:10;4.40;98.60
69082;DHT22;56184;51.986;5.760;2022-12-07T00:30:48;4.40;98.50
69082;DHT22;56184;51.986;5.760;2022-12-07T00:33:26;4.40;98.40
69082;DHT22;56184;51.986;5.760;2022-12-07T00:35:58;4.40;98.60
69082;DHT22;56184;51.986;5.760;2022-12-07T00:38:48;4.30;98.80
69082;DHT22;56184;51.986;5.760;2022-12-07T00:41:28;4.30;99.00
69082;DHT22;56184;51.986;5.760;2022-12-07T00:43:54;4.30;98.80
69082;DHT22;56184;51.986;5.760;2022-12-07T00:46:23;4.20;98.80
69082;DHT22;56184;51.986;5.760;2022-12-07T00:48:53;4.10;98.70
69082;DHT22;56184;51.986;5.760;2022-12-07T00:51:21;4.10;98.80
69082;DHT22;56184;51.986;5.760;2022-12-07T00:53:50;4.10;98.90
69082;DHT22;56184;51.986;5.760;2022-12-07T00:56:27;4.10;99.00
69082;DHT22;56184;51.986;5.760;2022-12-07T00:59:01;4.00;98.90
69082;DHT22;56184;51.986;5.760;2022-12-07T01:01:43;4.00;99.20
69082;DHT22;56184;51.986;5.760;2022-12-07T01:04:08;4.00;99.10
69082;DHT22;56184;51.986;5.760;2022-12-07T01:06:52;4.00;99.20
69082;DHT22;56184;51.986;5.760;2022-12-07T01:09:18;4.00;99.30
69082;DHT22;56184;51.986;5.760;2022-12-07T01:11:58;4.00;99.20
69082;DHT22;56184;51.986;5.760;2022-12-07T01:14:30;3.90;99.10
69082;DHT22;56184;51.986;5.760;2022-12-07T01:16:55;3.90;99.40
69082;DHT22;56184;51.986;5.760;2022-12-07T01:19:31;3.90;99.60
69082;DHT22;56184;51.986;5.760;2022-12-07T01:22:00;3.90;99.40
69082;DHT22;56184;51.986;5.760;2022-12-07T01:24:41;3.80;99.40
69082;DHT22;56184;51.986;5.760;2022-12-07T01:27:18;3.90;99.50
69082;DHT22;56184;51.986;5.760;2022-12-07T01:29:44;3.90;99.90
69082;DHT22;56184;51.986;5.760;2022-12-07T01:32:24;3.90;99.70
69082;DHT22;56184;51.986;5.760;2022-12-07T01:34:50;3.80;99.60
69082;DHT22;56184;51.986;5.760;2022-12-07T01:37:16;3.80;99.30
69082;DHT22;56184;51.986;5.760;2022-12-07T01:39:56;3.70;99.30
69082;DHT22;56184;51.986;5.760;2022-12-07T01:42:22;3.70;99.60
69082;DHT22;56184;51.986;5.760;2022-12-07T01:48:35;3.70;99.90
69082;DHT22;56184;51.986;5.760;2022-12-07T01:51:09;3.70;99.90
69082;DHT22;56184;51.986;5.760;2022-12-07T01:53:38;3.70;99.90
69082;DHT22;56184;51.986;5.760;2022-12-07T01:56:07;3.70;99.80
69082;DHT22;56184;51.986;5.760;2022-12-07T01:58:34;3.70;99.90
69082;DHT22;56184;51.986;5.760;2022-12-07T02:01:03;3.60;99.90
69082;DHT22;56184;51.986;5.760;2022-12-07T02:03:36;3.60;99.90
69082;DHT22;56184;51.986;5.760;2022-12-07T02:06:08;3.60;99.90
69082;DHT22;56184;51.986;5.760;2022-12-07T02:08:50;3.60;99.70
69082;DHT22;56184;51.986;5.760;2022-12-07T02:11:19;3.60;99.50
69082;DHT22;56184;51.986;5.760;2022-12-07T02:14:01;3.50;99.60
69082;DHT22;56184;51.986;5.760;2022-12-07T02:25:52;3.50;99.40
69082;DHT22;56184;51.986;5.760;2022-12-07T02:31:20;3.40;99.70
69082;DHT22;56184;51.986;5.760;2022-12-07T02:33:53;3.40;99.50
69082;DHT22;56184;51.986;5.760;2022-12-07T02:36:34;3.40;99.80
69082;DHT22;56184;51.986;5.760;2022-12-07T02:42:40;3.40;99.20
69082;DHT22;56184;51.986;5.760;2022-12-07T02:45:29;3.30;99.50
69082;DHT22;56184;51.986;5.760;2022-12-07T02:51:31;3.30;99.90
69082;DHT22;56184;51.986;5.760;2022-12-07T03:00:26;3.30;99.90
69082;DHT22;56184;51.986;5.760;2022-12-07T03:03:18;3.30;99.90
69082;DHT22;56184;51.986;5.760;2022-12-07T03:06:10;3.40;99.90
69082;DHT22;56184;51.986;5.760;2022-12-07T03:16:42;3.50;99.90
69082;DHT22;56184;51.986;5.760;2022-12-07T03:19:16;3.50;99.90
69082;DHT22;56184;51.986;5.760;2022-12-07T03:21:45;3.60;99.90
69082;DHT22;56184;51.986;5.760;2022-12-07T03:24:17;3.60;99.90
69082;DHT22;56184;51.986;5.760;2022-12-07T03:26:51;3.60;99.90
69082;DHT22;56184;51.986;5.760;2022-12-07T03:29:22;3.70;99.90
69082;DHT22;56184;51.986;5.760;2022-12-07T03:31:56;3.70;99.90
69082;DHT22;56184;51.986;5.760;2022-12-07T03:35:20;3.70;99.90
69082;DHT22;56184;51.986;5.760;2022-12-07T03:41:24;3.70;99.90
69082;DHT22;56184;51.986;5.760;2022-12-07T03:43:51;3.70;99.90
69082;DHT22;56184;51.986;5.760;2022-12-07T03:46:20;3.80;99.90
69082;DHT22;56184;51.986;5.760;2022-12-07T03:57:56;3.90;99.90
69082;DHT22;56184;51.986;5.760;2022-12-07T04:00:24;3.90;99.90
69082;DHT22;56184;51.986;5.760;2022-12-07T04:02:53;3.90;99.90
69082;DHT22;56184;51.986;5.760;2022-12-07T04:05:37;3.90;99.90
69082;DHT22;56184;51.986;5.760;2022-12-07T04:08:09;3.90;99.90
69082;DHT22;56184;51.986;5.760;2022-12-07T04:10:35;3.90;99.90
69082;DHT22;56184;51.986;5.760;2022-12-07T04:13:03;3.90;99.90
69082;DHT22;56184;51.986;5.760;2022-12-07T04:16:05;3.90;99.90
69082;DHT22;56184;51.986;5.760;2022-12-07T04:18:31;3.90;99.90
69082;DHT22;56184;51.986;5.760;2022-12-07T04:20:57;4.00;99.90
69082;DHT22;56184;51.986;5.760;2022-12-07T04:23:22;3.90;99.90
69082;DHT22;56184;51.986;5.760;2022-12-07T04:25:51;3.90;99.90
69082;DHT22;56184;51.986;5.760;2022-12-07T04:28:17;3.90;99.90
69082;DHT22;56184;51.986;5.760;2022-12-07T04:30:48;3.80;99.90
69082;DHT22;56184;51.986;5.760;2022-12-07T04:36:49;3.80;99.90
69082;DHT22;56184;51.986;5.760;2022-12-07T04:39:29;3.80;99.90
69082;DHT22;56184;51.986;5.760;2022-12-07T04:41:56;3.80;99.90
69082;DHT22;56184;51.986;5.760;2022-12-07T04:44:23;3.90;99.90
69082;DHT22;56184;51.986;5.760;2022-12-07T04:46:50;3.80;99.90
69082;DHT22;56184;51.986;5.760;2022-12-07T04:49:33;3.90;99.90
69082;DHT22;56184;51.986;5.760;2022-12-07T04:52:10;3.90;99.90
69082;DHT22;56184;51.986;5.760;2022-12-07T04:54:41;3.90;99.90
69082;DHT22;56184;51.986;5.760;2022-12-07T04:57:14;3.90;99.90
69082;DHT22;56184;51.986;5.760;2022-12-07T04:59:40;4.00;99.90
69082;DHT22;56184;51.986;5.760;2022-12-07T05:02:08;4.00;99.90
69082;DHT22;56184;51.986;5.760;2022-12-07T05:04:34;4.00;99.90
69082;DHT22;56184;51.986;5.760;2022-12-07T05:07:00;4.10;99.90
69082;DHT22;56184;51.986;5.760;2022-12-07T05:09:31;4.10;99.90
69082;DHT22;56184;51.986;5.760;2022-12-07T05:11:57;4.00;99.90
69082;DHT22;56184;51.986;5.760;2022-12-07T05:14:37;4.00;99.90
69082;DHT22;56184;51.986;5.760;2022-12-07T05:17:18;4.00;99.90
69082;DHT22;56184;51.986;5.760;2022-12-07T05:19:53;4.00;99.90
69082;DHT22;56184;51.986;5.760;2022-12-07T05:22:24;4.00;99.90
69082;DHT22;56184;51.986;5.760;2022-12-07T05:24:54;4.00;99.90
69082;DHT22;56184;51.986;5.760;2022-12-07T05:27:32;4.00;99.90
69082;DHT22;56184;51.986;5.760;2022-12-07T05:30:10;4.00;99.90
69082;DHT22;56184;51.986;5.760;2022-12-07T05:32:38;4.00;99.90
69082;DHT22;56184;51.986;5.760;2022-12-07T05:35:09;4.00;99.90
69082;DHT22;56184;51.986;5.760;2022-12-07T05:37:35;3.90;99.90
69082;DHT22;56184;51.986;5.760;2022-12-07T05:40:00;4.00;99.90
69082;DHT22;56184;51.986;5.760;2022-12-07T05:42:26;3.90;99.90
69082;DHT22;56184;51.986;5.760;2022-12-07T05:44:51;3.90;99.90
69082;DHT22;56184;51.986;5.760;2022-12-07T05:47:29;3.90;99.90
69082;DHT22;56184;51.986;5.760;2022-12-07T05:49:55;3.90;99.80
69082;DHT22;56184;51.986;5.760;2022-12-07T05:52:21;3.90;99.80
69082;DHT22;56184;51.986;5.760;2022-12-07T05:54:56;3.80;99.70
69082;DHT22;56184;51.986;5.760;2022-12-07T05:57:21;3.80;99.60
69082;DHT22;56184;51.986;5.760;2022-12-07T05:59:47;3.70;99.60
69082;DHT22;56184;51.986;5.760;2022-12-07T06:02:15;3.60;99.60
69082;DHT22;56184;51.986;5.760;2022-12-07T06:08:12;3.60;99.90
69082;DHT22;56184;51.986;5.760;2022-12-07T06:19:43;3.60;99.70
69082;DHT22;56184;51.986;5.760;2022-12-07T06:22:35;3.60;99.70
69082;DHT22;56184;51.986;5.760;2022-12-07T06:25:02;3.60;99.40
69082;DHT22;56184;51.986;5.760;2022-12-07T06:27:38;3.50;99.60
69082;DHT22;56184;51.986;5.760;2022-12-07T06:30:10;3.50;99.80
69082;DHT22;56184;51.986;5.760;2022-12-07T06:32:57;3.50;99.90
69082;DHT22;56184;51.986;5.760;2022-12-07T06:35:26;3.50;99.80
69082;DHT22;56184;51.986;5.760;2022-12-07T06:37:58;3.50;99.90
69082;DHT22;56184;51.986;5.760;2022-12-07T06:40:23;3.50;99.90
69082;DHT22;56184;51.986;5.760;2022-12-07T06:42:55;3.50;99.90
69082;DHT22;56184;51.986;5.760;2022-12-07T06:45:30;3.60;99.90
69082;DHT22;56184;51.986;5.760;2022-12-07T06:48:01;3.70;99.90
69082;DHT22;56184;51.986;5.760;2022-12-07T06:50:27;3.70;99.90
69082;DHT22;56184;51.986;5.760;2022-12-07T06:52:53;3.70;99.90
69082;DHT22;56184;51.986;5.760;2022-12-07T06:55:18;3.70;99.90
69082;DHT22;56184;51.986;5.760;2022-12-07T06:57:49;3.70;99.90
69082;DHT22;56184;51.986;5.760;2022-12-07T07:00:15;3.70;99.90
69082;DHT22;56184;51.986;5.760;2022-12-07T07:02:41;3.80;99.90
69082;DHT22;56184;51.986;5.760;2022-12-07T07:05:19;3.80;99.90
69082;DHT22;56184;51.986;5.760;2022-12-07T07:07:48;3.80;99.90
69082;DHT22;56184;51.986;5.760;2022-12-07T07:10:22;3.80;99.90
69082;DHT22;56184;51.986;5.760;2022-12-07T07:13:18;3.70;99.90
69082;DHT22;56184;51.986;5.760;2022-12-07T07:15:50;3.70;99.90
69082;DHT22;56184;51.986;5.760;2022-12-07T07:18:22;3.70;99.90
69082;DHT22;56184;51.986;5.760;2022-12-07T07:21:03;3.70;99.80
69082;DHT22;56184;51.986;5.760;2022-12-07T07:23:28;3.60;99.90
69082;DHT22;56184;51.986;5.760;2022-12-07T07:26:08;3.60;99.90
69082;DHT22;56184;51.986;5.760;2022-12-07T07:28:34;3.60;99.90
69082;DHT22;56184;51.986;5.760;2022-12-07T07:31:00;3.60;99.90
69082;DHT22;56184;51.986;5.760;2022-12-07T07:33:48;3.70;99.90
69082;DHT22;56184;51.986;5.760;2022-12-07T07:36:14;3.70;99.80
69082;DHT22;56184;51.986;5.760;2022-12-07T07:38:52;3.70;99.60
69082;DHT22;56184;51.986;5.760;2022-12-07T07:41:18;3.60;99.50
69082;DHT22;56184;51.986;5.760;2022-12-07T07:43:58;3.60;99.00
69082;DHT22;56184;51.986;5.760;2022-12-07T07:46:24;3.60;99.30
69082;DHT22;56184;51.986;5.760;2022-12-07T07:48:50;3.60;99.80
69082;DHT22;56184;51.986;5.760;2022-12-07T07:51:15;3.60;99.50
69082;DHT22;56184;51.986;5.760;2022-12-07T07:53:52;3.50;99.50
69082;DHT22;56184;51.986;5.760;2022-12-07T07:56:18;3.50;99.50
69082;DHT22;56184;51.986;5.760;2022-12-07T07:58:43;3.50;99.50
69082;DHT22;56184;51.986;5.760;2022-12-07T08:01:16;3.50;99.70
69082;DHT22;56184;51.986;5.760;2022-12-07T08:03:41;3.50;99.60
69082;DHT22;56184;51.986;5.760;2022-12-07T08:06:07;3.50;99.90
69082;DHT22;56184;51.986;5.760;2022-12-07T08:08:33;3.50;99.90
69082;DHT22;56184;51.986;5.760;2022-12-07T08:10:58;3.50;99.90
69082;DHT22;56184;51.986;5.760;2022-12-07T08:13:27;3.50;99.90
69082;DHT22;56184;51.986;5.760;2022-12-07T08:16:25;3.60;99.90
69082;DHT22;56184;51.986;5.760;2022-12-07T08:18:57;3.60;99.80
69082;DHT22;56184;51.986;5.760;2022-12-07T08:21:37;3.60;99.90
69082;DHT22;56184;51.986;5.760;2022-12-07T08:24:30;3.70;99.90
69082;DHT22;56184;51.986;5.760;2022-12-07T08:27:25;3.70;99.90
69082;DHT22;56184;51.986;5.760;2022-12-07T08:29:58;3.90;99.90
69082;DHT22;56184;51.986;5.760;2022-12-07T08:32:24;4.00;99.90
69082;DHT22;56184;51.986;5.760;2022-12-07T08:34:49;4.00;99.70
69082;DHT22;56184;51.986;5.760;2022-12-07T08:37:15;4.00;99.80
69082;DHT22;56184;51.986;5.760;2022-12-07T08:39:40;4.10;99.60
69082;DHT22;56184;51.986;5.760;2022-12-07T08:42:06;4.20;99.70
69082;DHT22;56184;51.986;5.760;2022-12-07T08:44:32;4.20;99.60
69082;DHT22;56184;51.986;5.760;2022-12-07T08:47:02;4.30;99.50
69082;DHT22;56184;51.986;5.760;2022-12-07T08:49:31;4.30;99.30
69082;DHT22;56184;51.986;5.760;2022-12-07T08:51:58;4.30;99.10
69082;DHT22;56184;51.986;5.760;2022-12-07T08:54:24;4.30;99.00
69082;DHT22;56184;51.986;5.760;2022-12-07T08:56:56;4.30;99.20
69082;DHT22;56184;51.986;5.760;2022-12-07T08:59:22;4.30;99.20
69082;DHT22;56184;51.986;5.760;2022-12-07T09:01:48;4.40;99.60
69082;DHT22;56184;51.986;5.760;2022-12-07T09:04:13;4.50;99.60
69082;DHT22;56184;51.986;5.760;2022-12-07T09:06:49;4.60;99.20
69082;DHT22;56184;51.986;5.760;2022-12-07T09:09:15;4.70;98.70
69082;DHT22;56184;51.986;5.760;2022-12-07T09:11:53;4.70;98.70
69082;DHT22;56184;51.986;5.760;2022-12-07T09:14:18;4.80;98.70
69082;DHT22;56184;51.986;5.760;2022-12-07T09:16:50;4.80;98.70
69082;DHT22;56184;51.986;5.760;2022-12-07T09:19:22;4.90;98.50
69082;DHT22;56184;51.986;5.760;2022-12-07T09:21:47;4.90;98.50
69082;DHT22;56184;51.986;5.760;2022-12-07T09:24:18;5.00;98.30
69082;DHT22;56184;51.986;5.760;2022-12-07T09:27:04;5.00;98.10
69082;DHT22;56184;51.986;5.760;2022-12-07T09:29:30;5.00;97.80
69082;DHT22;56184;51.986;5.760;2022-12-07T09:32:05;5.00;97.60
69082;DHT22;56184;51.986;5.760;2022-12-07T09:34:39;5.00;97.60
69082;DHT22;56184;51.986;5.760;2022-12-07T09:37:05;5.00;98.00
69082;DHT22;56184;51.986;5.760;2022-12-07T09:39:37;5.00;98.10
69082;DHT22;56184;51.986;5.760;2022-12-07T09:42:41;5.10;98.10
69082;DHT22;56184;51.986;5.760;2022-12-07T09:45:31;5.10;98.10
69082;DHT22;56184;51.986;5.760;2022-12-07T09:47:58;5.10;98.10
69082;DHT22;56184;51.986;5.760;2022-12-07T09:50:36;5.10;98.00
69082;DHT22;56184;51.986;5.760;2022-12-07T09:53:28;5.10;98.00
69082;DHT22;56184;51.986;5.760;2022-12-07T09:56:14;5.10;97.90
69082;DHT22;56184;51.986;5.760;2022-12-07T09:58:43;5.10;98.10
69082;DHT22;56184;51.986;5.760;2022-12-07T10:04:32;5.20;98.00
69082;DHT22;56184;51.986;5.760;2022-12-07T10:06:58;5.50;97.80
69082;DHT22;56184;51.986;5.760;2022-12-07T10:09:23;5.60;97.70
69082;DHT22;56184;51.986;5.760;2022-12-07T10:12:06;5.70;98.30
69082;DHT22;56184;51.986;5.760;2022-12-07T10:14:38;5.80;97.10
69082;DHT22;56184;51.986;5.760;2022-12-07T10:17:31;6.00;96.70
69082;DHT22;56184;51.986;5.760;2022-12-07T10:20:21;6.00;96.60
69082;DHT22;56184;51.986;5.760;2022-12-07T10:23:05;6.10;97.20
69082;DHT22;56184;51.986;5.760;2022-12-07T10:25:35;6.10;96.60
69082;DHT22;56184;51.986;5.760;2022-12-07T10:28:21;6.10;96.30
69082;DHT22;56184;51.986;5.760;2022-12-07T10:30:59;6.20;96.50
69082;DHT22;56184;51.986;5.760;2022-12-07T10:33:44;6.30;95.90
69082;DHT22;56184;51.986;5.760;2022-12-07T10:36:23;6.20;95.90
69082;DHT22;56184;51.986;5.760;2022-12-07T10:39:03;6.30;96.00
69082;DHT22;56184;51.986;5.760;2022-12-07T10:41:28;6.40;96.30
69082;DHT22;56184;51.986;5.760;2022-12-07T10:43:56;6.70;95.40
69082;DHT22;56184;51.986;5.760;2022-12-07T10:47:17;6.70;95.40
69082;DHT22;56184;51.986;5.760;2022-12-07T10:52:14;6.90;95.70
69082;DHT22;56184;51.986;5.760;2022-12-07T11:00:24;7.00;94.60
69082;DHT22;56184;51.986;5.760;2022-12-07T11:03:05;6.80;94.70
69082;DHT22;56184;51.986;5.760;2022-12-07T11:05:58;6.70;95.20
69082;DHT22;56184;51.986;5.760;2022-12-07T11:08:42;6.70;94.70
69082;DHT22;56184;51.986;5.760;2022-12-07T11:11:14;6.70;95.30
69082;DHT22;56184;51.986;5.760;2022-12-07T11:19:49;6.90;94.80
69082;DHT22;56184;51.986;5.760;2022-12-07T11:33:45;7.20;94.60
69082;DHT22;56184;51.986;5.760;2022-12-07T11:41:50;7.10;94.20
69082;DHT22;56184;51.986;5.760;2022-12-07T11:55:50;7.50;94.40
69082;DHT22;56184;51.986;5.760;2022-12-07T12:03:37;7.80;93.80
69082;DHT22;56184;51.986;5.760;2022-12-07T12:06:03;7.90;93.90
69082;DHT22;56184;51.986;5.760;2022-12-07T12:21:10;8.00;93.10
69082;DHT22;56184;51.986;5.760;2022-12-07T12:26:33;8.00;93.30
69082;DHT22;56184;51.986;5.760;2022-12-07T12:29:18;7.90;92.90
69082;DHT22;56184;51.986;5.760;2022-12-07T12:31:47;7.80;92.90
69082;DHT22;56184;51.986;5.760;2022-12-07T12:34:57;7.70;93.30
69082;DHT22;56184;51.986;5.760;2022-12-07T12:37:54;7.70;93.90
69082;DHT22;56184;51.986;5.760;2022-12-07T12:42:56;7.50;93.90
69082;DHT22;56184;51.986;5.760;2022-12-07T12:45:36;7.60;94.00
69082;DHT22;56184;51.986;5.760;2022-12-07T12:48:27;7.60;93.70
69082;DHT22;56184;51.986;5.760;2022-12-07T12:54:33;7.80;93.40
69082;DHT22;56184;51.986;5.760;2022-12-07T12:57:26;7.70;93.10
69082;DHT22;56184;51.986;5.760;2022-12-07T13:02:36;7.70;93.40
69082;DHT22;56184;51.986;5.760;2022-12-07T13:18:42;8.10;92.90
69082;DHT22;56184;51.986;5.760;2022-12-07T13:21:42;8.30;92.30
69082;DHT22;56184;51.986;5.760;2022-12-07T13:24:15;8.40;91.10
69082;DHT22;56184;51.986;5.760;2022-12-07T13:26:46;8.40;92.50
69082;DHT22;56184;51.986;5.760;2022-12-07T13:29:28;8.70;91.80
69082;DHT22;56184;51.986;5.760;2022-12-07T13:32:23;8.80;90.90
69082;DHT22;56184;51.986;5.760;2022-12-07T13:34:49;9.30;90.40
69082;DHT22;56184;51.986;5.760;2022-12-07T13:37:21;9.70;90.20
69082;DHT22;56184;51.986;5.760;2022-12-07T13:39:51;10.00;86.70
69082;DHT22;56184;51.986;5.760;2022-12-07T13:42:34;10.00;86.50
69082;DHT22;56184;51.986;5.760;2022-12-07T13:45:33;10.40;86.40
69082;DHT22;56184;51.986;5.760;2022-12-07T13:48:47;10.60;85.50
69082;DHT22;56184;51.986;5.760;2022-12-07T13:51:39;10.40;83.60
69082;DHT22;56184;51.986;5.760;2022-12-07T13:54:15;9.90;86.50
69082;DHT22;56184;51.986;5.760;2022-12-07T13:56:51;9.70;90.00
69082;DHT22;56184;51.986;5.760;2022-12-07T13:59:26;9.40;89.40
69082;DHT22;56184;51.986;5.760;2022-12-07T14:01:53;9.10;90.40
69082;DHT22;56184;51.986;5.760;2022-12-07T14:06:55;8.80;90.90
69082;DHT22;56184;51.986;5.760;2022-12-07T14:09:23;8.60;91.50
69082;DHT22;56184;51.986;5.760;2022-12-07T14:11:51;8.40;92.40
69082;DHT22;56184;51.986;5.760;2022-12-07T14:14:26;8.40;91.80
69082;DHT22;56184;51.986;5.760;2022-12-07T14:17:19;8.50;92.10
69082;DHT22;56184;51.986;5.760;2022-12-07T14:25:20;8.60;92.10
69082;DHT22;56184;51.986;5.760;2022-12-07T14:30:16;8.50;91.30
69082;DHT22;56184;51.986;5.760;2022-12-07T14:32:43;8.50;91.60
69082;DHT22;56184;51.986;5.760;2022-12-07T14:35:15;8.40;90.20
69082;DHT22;56184;51.986;5.760;2022-12-07T14:37:46;8.30;91.10
69082;DHT22;56184;51.986;5.760;2022-12-07T14:40:17;8.40;91.20
69082;DHT22;56184;51.986;5.760;2022-12-07T14:42:52;8.30;91.30
69082;DHT22;56184;51.986;5.760;2022-12-07T14:45:21;8.10;90.20
69082;DHT22;56184;51.986;5.760;2022-12-07T14:47:46;8.10;92.10
69082;DHT22;56184;51.986;5.760;2022-12-07T14:50:14;8.10;91.70
69082;DHT22;56184;51.986;5.760;2022-12-07T14:53:15;8.10;92.30
69082;DHT22;56184;51.986;5.760;2022-12-07T14:55:50;7.90;91.20
69082;DHT22;56184;51.986;5.760;2022-12-07T14:58:17;7.80;91.90
69082;DHT22;56184;51.986;5.760;2022-12-07T15:00:43;7.60;91.40
69082;DHT22;56184;51.986;5.760;2022-12-07T15:03:08;7.50;91.30
69082;DHT22;56184;51.986;5.760;2022-12-07T15:05:35;7.40;92.40
69082;DHT22;56184;51.986;5.760;2022-12-07T15:08:09;7.30;92.20
69082;DHT22;56184;51.986;5.760;2022-12-07T15:10:37;7.20;92.70
69082;DHT22;56184;51.986;5.760;2022-12-07T15:13:04;7.10;92.90
69082;DHT22;56184;51.986;5.760;2022-12-07T15:15:50;7.00;93.30
69082;DHT22;56184;51.986;5.760;2022-12-07T15:18:16;7.10;93.30
69082;DHT22;56184;51.986;5.760;2022-12-07T15:20:42;7.00;93.40
69082;DHT22;56184;51.986;5.760;2022-12-07T15:23:09;6.80;93.60
69082;DHT22;56184;51.986;5.760;2022-12-07T15:25:42;6.90;94.20
69082;DHT22;56184;51.986;5.760;2022-12-07T15:28:07;6.90;93.90
69082;DHT22;56184;51.986;5.760;2022-12-07T15:30:33;6.80;94.00
69082;DHT22;56184;51.986;5.760;2022-12-07T15:32:59;6.70;94.00
69082;DHT22;56184;51.986;5.760;2022-12-07T15:35:24;6.60;94.30
69082;DHT22;56184;51.986;5.760;2022-12-07T15:37:50;6.60;94.50
69082;DHT22;56184;51.986;5.760;2022-12-07T15:40:17;6.60;94.60
69082;DHT22;56184;51.986;5.760;2022-12-07T15:42:42;6.70;94.60
69082;DHT22;56184;51.986;5.760;2022-12-07T15:45:09;6.60;94.10
69082;DHT22;56184;51.986;5.760;2022-12-07T15:47:42;6.60;94.20
69082;DHT22;56184;51.986;5.760;2022-12-07T15:50:09;6.50;94.20
69082;DHT22;56184;51.986;5.760;2022-12-07T15:52:37;6.50;94.50
69082;DHT22;56184;51.986;5.760;2022-12-07T15:55:03;6.40;94.50
69082;DHT22;56184;51.986;5.760;2022-12-07T15:57:30;6.40;94.80
69082;DHT22;56184;51.986;5.760;2022-12-07T15:59:55;6.40;94.60
69082;DHT22;56184;51.986;5.760;2022-12-07T16:02:21;6.30;94.60
69082;DHT22;56184;51.986;5.760;2022-12-07T16:04:48;6.30;94.80
69082;DHT22;56184;51.986;5.760;2022-12-07T16:07:13;6.40;94.80
69082;DHT22;56184;51.986;5.760;2022-12-07T16:09:44;6.30;94.80
69082;DHT22;56184;51.986;5.760;2022-12-07T16:12:36;6.30;94.80
69082;DHT22;56184;51.986;5.760;2022-12-07T16:15:03;6.20;94.70
69082;DHT22;56184;51.986;5.760;2022-12-07T16:17:31;6.30;94.80
69082;DHT22;56184;51.986;5.760;2022-12-07T16:19:57;6.10;94.90
69082;DHT22;56184;51.986;5.760;2022-12-07T16:22:50;6.10;95.00
69082;DHT22;56184;51.986;5.760;2022-12-07T16:25:26;6.00;95.00
69082;DHT22;56184;51.986;5.760;2022-12-07T16:28:18;6.00;95.00
69082;DHT22;56184;51.986;5.760;2022-12-07T16:30:44;6.00;94.90
69082;DHT22;56184;51.986;5.760;2022-12-07T16:33:21;5.90;94.70
69082;DHT22;56184;51.986;5.760;2022-12-07T16:36:13;6.00;95.10
69082;DHT22;56184;51.986;5.760;2022-12-07T16:38:42;5.90;94.70
69082;DHT22;56184;51.986;5.760;2022-12-07T16:41:08;5.80;94.80
69082;DHT22;56184;51.986;5.760;2022-12-07T16:43:35;5.90;95.00
69082;DHT22;56184;51.986;5.760;2022-12-07T16:46:01;5.90;95.10
69082;DHT22;56184;51.986;5.760;2022-12-07T16:48:27;5.90;94.60
69082;DHT22;56184;51.986;5.760;2022-12-07T16:50:53;5.80;95.00
69082;DHT22;56184;51.986;5.760;2022-12-07T16:53:38;5.80;94.80
69082;DHT22;56184;51.986;5.760;2022-12-07T16:56:10;5.80;95.20
69082;DHT22;56184;51.986;5.760;2022-12-07T16:58:37;5.80;95.00
69082;DHT22;56184;51.986;5.760;2022-12-07T17:01:13;5.80;95.10
69082;DHT22;56184;51.986;5.760;2022-12-07T17:03:39;5.80;95.20
69082;DHT22;56184;51.986;5.760;2022-12-07T17:06:23;5.80;95.30
69082;DHT22;56184;51.986;5.760;2022-12-07T17:08:50;5.80;95.30
69082;DHT22;56184;51.986;5.760;2022-12-07T17:11:19;5.70;95.30
69082;DHT22;56184;51.986;5.760;2022-12-07T17:13:45;5.70;95.30
69082;DHT22;56184;51.986;5.760;2022-12-07T17:16:33;5.70;95.50
69082;DHT22;56184;51.986;5.760;2022-12-07T17:19:02;5.70;95.70
69082;DHT22;56184;51.986;5.760;2022-12-07T17:21:28;5.70;95.50
69082;DHT22;56184;51.986;5.760;2022-12-07T17:23:54;5.60;95.50
69082;DHT22;56184;51.986;5.760;2022-12-07T17:26:22;5.50;95.80
69082;DHT22;56184;51.986;5.760;2022-12-07T17:28:48;5.50;95.90
69082;DHT22;56184;51.986;5.760;2022-12-07T17:31:22;5.60;95.90
69082;DHT22;56184;51.986;5.760;2022-12-07T17:33:47;5.50;95.70
69082;DHT22;56184;51.986;5.760;2022-12-07T17:36:33;5.50;96.10
69082;DHT22;56184;51.986;5.760;2022-12-07T17:38:59;5.50;96.00
69082;DHT22;56184;51.986;5.760;2022-12-07T17:41:26;5.50;96.10
69082;DHT22;56184;51.986;5.760;2022-12-07T17:44:28;5.50;96.40
69082;DHT22;56184;51.986;5.760;2022-12-07T17:47:23;5.50;96.30
69082;DHT22;56184;51.986;5.760;2022-12-07T17:49:53;5.40;96.40
69082;DHT22;56184;51.986;5.760;2022-12-07T17:52:19;5.30;96.30
69082;DHT22;56184;51.986;5.760;2022-12-07T17:55:04;5.40;96.60
69082;DHT22;56184;51.986;5.760;2022-12-07T17:57:30;5.40;96.70
69082;DHT22;56184;51.986;5.760;2022-12-07T17:59:55;5.30;96.30
69082;DHT22;56184;51.986;5.760;2022-12-07T18:02:22;5.30;96.40
69082;DHT22;56184;51.986;5.760;2022-12-07T18:04:53;5.40;96.40
69082;DHT22;56184;51.986;5.760;2022-12-07T18:07:31;5.50;96.20
69082;DHT22;56184;51.986;5.760;2022-12-07T18:10:03;5.40;96.00
69082;DHT22;56184;51.986;5.760;2022-12-07T18:12:34;5.40;96.10
69082;DHT22;56184;51.986;5.760;2022-12-07T18:15:06;5.30;96.10
69082;DHT22;56184;51.986;5.760;2022-12-07T18:17:41;5.30;96.50
69082;DHT22;56184;51.986;5.760;2022-12-07T18:20:12;5.40;96.40
69082;DHT22;56184;51.986;5.760;2022-12-07T18:22:41;5.30;96.30
69082;DHT22;56184;51.986;5.760;2022-12-07T18:25:13;5.30;96.20
69082;DHT22;56184;51.986;5.760;2022-12-07T18:27:43;5.30;96.20
69082;DHT22;56184;51.986;5.760;2022-12-07T18:30:09;5.30;96.20
69082;DHT22;56184;51.986;5.760;2022-12-07T18:32:35;5.30;96.00
69082;DHT22;56184;51.986;5.760;2022-12-07T18:35:04;5.30;96.00
69082;DHT22;56184;51.986;5.760;2022-12-07T18:37:36;5.30;95.70
69082;DHT22;56184;51.986;5.760;2022-12-07T18:40:07;5.30;96.00
69082;DHT22;56184;51.986;5.760;2022-12-07T18:42:36;5.30;95.70
69082;DHT22;56184;51.986;5.760;2022-12-07T18:45:08;5.30;95.40
69082;DHT22;56184;51.986;5.760;2022-12-07T18:47:36;5.20;95.50
69082;DHT22;56184;51.986;5.760;2022-12-07T18:50:09;5.30;95.70
69082;DHT22;56184;51.986;5.760;2022-12-07T18:52:37;5.20;95.70
69082;DHT22;56184;51.986;5.760;2022-12-07T18:55:15;5.20;95.50
69082;DHT22;56184;51.986;5.760;2022-12-07T18:57:44;5.20;95.80
69082;DHT22;56184;51.986;5.760;2022-12-07T19:00:23;5.20;95.70
69082;DHT22;56184;51.986;5.760;2022-12-07T19:02:50;5.20;95.70
69082;DHT22;56184;51.986;5.760;2022-12-07T19:05:18;5.10;95.80
69082;DHT22;56184;51.986;5.760;2022-12-07T19:07:44;5.10;96.00
69082;DHT22;56184;51.986;5.760;2022-12-07T19:10:11;5.10;96.10
69082;DHT22;56184;51.986;5.760;2022-12-07T19:12:43;5.10;96.00